Time;durP1;ratioP1;P1;durP2;ratioP2;P2;SDS_P1;SDS_P2;PMS_P1;PMS_P2;Temp;Humidity;BMP_temperature;BMP_pressure;BME280_temperature;BME280_humidity;BME280_pressure;Samples;Min_cycle;Max_cycle;Signal;HPM_P1;HPM_P2
2021/10/28 00:13:39;;;;;;;1.60;1.20;;;10.40;98.20;;;;;;4975542;28;20516;-76
2021/10/28 00:16:13;;;;;;;1.57;1.10;;;10.40;98.20;;;;;;4974222;28;21064;-76
2021/10/28 00:18:44;;;;;;;1.60;1.20;;;10.30;98.20;;;;;;4972468;28;20461;-76
2021/10/28 00:21:14;;;;;;;1.60;1.20;;;10.30;98.20;;;;;;4974175;28;20494;-75
2021/10/28 00:23:44;;;;;;;1.60;1.37;;;10.30;98.20;;;;;;4977370;28;20896;-76
2021/10/28 00:26:12;;;;;;;1.70;1.40;;;10.30;98.20;;;;;;4973877;28;20732;-76
2021/10/28 00:28:39;;;;;;;1.60;1.20;;;10.30;98.20;;;;;;4971893;28;21234;-77
2021/10/28 00:31:07;;;;;;;1.60;1.20;;;10.30;98.20;;;;;;4973878;28;20486;-76
2021/10/28 00:33:35;;;;;;;1.57;1.20;;;10.30;98.20;;;;;;4974698;28;20517;-76
2021/10/28 00:36:06;;;;;;;1.60;1.20;;;10.30;98.20;;;;;;4973495;28;20493;-76
2021/10/28 00:38:34;;;;;;;1.57;1.20;;;10.20;98.20;;;;;;4967345;28;20473;-76
2021/10/28 00:41:03;;;;;;;1.57;1.20;;;10.20;98.20;;;;;;4966739;28;20953;-76
2021/10/28 00:43:31;;;;;;;1.57;1.20;;;10.20;98.20;;;;;;4973294;28;20458;-77
2021/10/28 00:45:58;;;;;;;1.70;1.40;;;10.20;98.20;;;;;;4970714;28;20493;-77
2021/10/28 00:48:26;;;;;;;1.60;1.20;;;10.20;98.20;;;;;;4972426;28;20864;-76
2021/10/28 00:50:54;;;;;;;1.60;1.30;;;10.20;98.20;;;;;;4967424;28;20490;-76
2021/10/28 00:53:23;;;;;;;1.60;1.20;;;10.20;98.20;;;;;;4973547;28;20581;-76
2021/10/28 00:55:54;;;;;;;1.60;1.30;;;10.10;98.20;;;;;;4969233;28;20485;-76
2021/10/28 00:58:23;;;;;;;2.00;1.80;;;10.10;98.20;;;;;;4967661;28;20753;-76
2021/10/28 01:00:51;;;;;;;1.60;1.20;;;10.10;98.20;;;;;;4970839;28;20464;-76
2021/10/28 01:03:19;;;;;;;1.60;1.23;;;10.10;98.20;;;;;;4967799;28;20992;-77
2021/10/28 01:05:46;;;;;;;1.60;1.33;;;10.10;98.20;;;;;;4971568;28;20489;-76
2021/10/28 01:08:16;;;;;;;1.60;1.20;;;10.10;98.20;;;;;;4971516;28;20470;-77
2021/10/28 01:10:46;;;;;;;1.60;1.20;;;10.10;98.20;;;;;;4971633;28;20490;-76
2021/10/28 01:13:14;;;;;;;1.60;1.10;;;10.10;98.20;;;;;;4972747;28;20501;-76
2021/10/28 01:15:41;;;;;;;1.60;1.20;;;10.10;98.20;;;;;;4968656;28;20489;-76
2021/10/28 01:18:09;;;;;;;1.60;1.20;;;10.10;98.20;;;;;;4969457;28;20462;-75
2021/10/28 01:20:38;;;;;;;1.60;1.20;;;10.10;98.20;;;;;;4972240;28;20469;-76
2021/10/28 01:23:06;;;;;;;1.57;1.10;;;10.10;98.20;;;;;;4972450;28;20557;-76
2021/10/28 01:25:33;;;;;;;1.60;1.20;;;10.10;98.20;;;;;;4975367;28;20513;-77
2021/10/28 01:28:00;;;;;;;1.60;1.20;;;10.10;98.20;;;;;;4965864;28;20467;-77
2021/10/28 01:30:28;;;;;;;1.70;1.60;;;10.10;98.20;;;;;;4972082;28;21028;-77
2021/10/28 01:32:54;;;;;;;1.60;1.20;;;10.10;98.20;;;;;;4973521;28;20474;-77
2021/10/28 01:35:22;;;;;;;1.57;1.10;;;10.10;98.20;;;;;;4972315;28;20501;-76
2021/10/28 01:37:51;;;;;;;1.70;1.40;;;10.10;98.20;;;;;;4970619;28;20540;-77
2021/10/28 01:40:18;;;;;;;1.60;1.20;;;10.10;98.20;;;;;;4971485;28;20494;-77
2021/10/28 01:42:50;;;;;;;1.60;1.20;;;10.10;98.20;;;;;;4972391;28;20466;-77
2021/10/28 01:45:17;;;;;;;1.60;1.20;;;10.10;98.20;;;;;;4967201;28;20481;-77
2021/10/28 01:47:45;;;;;;;1.60;1.30;;;10.10;98.20;;;;;;4969737;28;20462;-77
2021/10/28 01:50:13;;;;;;;1.57;1.20;;;10.10;98.20;;;;;;4972150;28;20521;-76
2021/10/28 01:52:41;;;;;;;1.60;1.23;;;10.10;98.20;;;;;;4975449;28;20501;-77
2021/10/28 01:55:11;;;;;;;1.60;1.20;;;10.10;98.20;;;;;;4960501;28;20952;-77
2021/10/28 01:57:39;;;;;;;1.57;1.20;;;10.10;98.20;;;;;;4969300;28;21024;-77
2021/10/28 02:00:13;;;;;;;1.60;1.20;;;10.10;98.20;;;;;;4972108;28;20458;-76
2021/10/28 02:02:41;;;;;;;1.60;1.20;;;10.10;98.20;;;;;;4972426;28;20477;-77
2021/10/28 02:05:10;;;;;;;4.13;3.83;;;10.10;98.20;;;;;;4971062;28;20493;-78
2021/10/28 02:07:38;;;;;;;1.60;1.10;;;10.10;98.20;;;;;;4970052;28;20963;-75
2021/10/28 02:10:06;;;;;;;1.97;1.77;;;10.10;98.20;;;;;;4968128;28;20572;-77
2021/10/28 02:12:36;;;;;;;1.60;1.10;;;10.00;98.20;;;;;;4970704;28;20949;-77
2021/10/28 02:15:04;;;;;;;1.60;1.13;;;10.00;98.20;;;;;;4971854;28;20486;-77
2021/10/28 02:17:31;;;;;;;1.60;1.20;;;10.00;98.20;;;;;;4966652;28;20548;-77
2021/10/28 02:19:58;;;;;;;1.60;1.20;;;10.00;98.20;;;;;;4971913;28;20549;-78
2021/10/28 02:22:27;;;;;;;1.60;1.30;;;10.00;98.20;;;;;;4971266;28;20713;-77
2021/10/28 02:24:54;;;;;;;1.60;1.20;;;10.00;98.20;;;;;;4969344;28;20486;-76
2021/10/28 02:27:21;;;;;;;1.60;1.20;;;10.10;98.20;;;;;;4970148;28;20569;-76
2021/10/28 02:29:50;;;;;;;1.60;1.20;;;10.10;98.20;;;;;;4972887;28;20552;-76
2021/10/28 02:32:17;;;;;;;1.60;1.30;;;10.10;98.20;;;;;;4975455;28;20524;-77
2021/10/28 02:34:44;;;;;;;1.60;1.20;;;10.10;98.20;;;;;;4975835;28;20485;-77
2021/10/28 02:37:11;;;;;;;1.60;1.40;;;10.00;98.20;;;;;;4974215;28;20477;-78
2021/10/28 02:39:39;;;;;;;1.93;1.67;;;10.10;98.20;;;;;;4976107;28;20556;-77
2021/10/28 02:42:07;;;;;;;1.53;1.10;;;10.10;98.20;;;;;;4975071;28;20469;-77
2021/10/28 02:44:35;;;;;;;1.60;1.20;;;10.00;98.20;;;;;;4976122;28;20552;-77
2021/10/28 02:47:04;;;;;;;1.60;1.20;;;10.00;98.20;;;;;;4975004;28;20478;-77
2021/10/28 02:49:31;;;;;;;1.60;1.30;;;10.10;98.20;;;;;;4976187;28;20524;-76
2021/10/28 02:51:58;;;;;;;1.60;1.20;;;10.00;98.20;;;;;;4975259;28;20482;-76
2021/10/28 02:54:26;;;;;;;1.60;1.13;;;10.00;98.20;;;;;;4980637;28;20490;-77
2021/10/28 02:56:53;;;;;;;1.60;1.20;;;10.00;98.20;;;;;;4971837;28;20631;-77
2021/10/28 02:59:20;;;;;;;1.57;1.20;;;10.10;98.20;;;;;;4974806;28;20465;-77
2021/10/28 03:01:48;;;;;;;1.60;1.20;;;10.00;98.20;;;;;;4975533;28;20493;-78
2021/10/28 03:04:18;;;;;;;1.57;1.20;;;10.10;98.20;;;;;;4973744;28;20494;-77
2021/10/28 03:06:46;;;;;;;1.57;1.20;;;10.10;98.20;;;;;;4974548;28;20462;-77
2021/10/28 03:09:15;;;;;;;1.60;1.20;;;10.10;98.20;;;;;;4973349;28;20888;-77
2021/10/28 03:11:43;;;;;;;1.60;1.20;;;10.10;98.20;;;;;;4974872;28;20493;-77
2021/10/28 03:14:12;;;;;;;1.60;1.30;;;10.10;98.20;;;;;;4975554;28;20555;-77
2021/10/28 03:16:45;;;;;;;1.60;1.40;;;10.10;98.20;;;;;;4974166;28;20559;-77
2021/10/28 03:27:33;;;;;;;1.60;1.27;;;10.10;98.20;;;;;;4968644;28;20815;-76
2021/10/28 03:30:00;;;;;;;1.60;1.20;;;10.10;98.20;;;;;;4975729;28;20528;-77
2021/10/28 03:32:28;;;;;;;4.17;3.43;;;10.10;98.20;;;;;;4974831;28;20497;-77
2021/10/28 03:34:56;;;;;;;1.60;1.20;;;10.10;98.20;;;;;;4974804;28;20525;-78
2021/10/28 03:37:27;;;;;;;1.60;1.30;;;10.10;98.20;;;;;;4973918;28;20529;-77
2021/10/28 03:43:22;;;;;;;1.60;1.30;;;10.10;98.20;;;;;;4951231;28;20470;-78
2021/10/28 03:46:34;;;;;;;1.60;1.20;;;10.10;98.20;;;;;;4975653;28;20563;-76
2021/10/28 04:00:33;;;;;;;1.60;1.20;;;10.10;98.20;;;;;;4974910;28;20501;-77
2021/10/28 04:17:14;;;;;;;1.60;1.23;;;10.00;98.20;;;;;;4974067;28;20441;-77
2021/10/28 04:19:50;;;;;;;1.60;1.20;;;10.00;98.20;;;;;;4974764;28;20490;-79
2021/10/28 04:30:31;;;;;;;1.60;1.30;;;10.00;98.20;;;;;;4972530;28;21147;-78
2021/10/28 04:32:58;;;;;;;1.60;1.20;;;10.00;98.20;;;;;;4974617;28;20468;-79
2021/10/28 04:35:25;;;;;;;1.60;1.20;;;10.00;98.20;;;;;;4974393;28;20497;-78
2021/10/28 04:37:52;;;;;;;1.60;1.20;;;9.90;98.20;;;;;;4971886;28;20935;-79
2021/10/28 04:40:19;;;;;;;1.60;1.20;;;10.00;98.20;;;;;;4973983;28;20560;-79
2021/10/28 04:42:47;;;;;;;1.60;1.20;;;9.90;98.20;;;;;;4972683;28;20517;-80
2021/10/28 04:45:14;;;;;;;2.27;2.07;;;9.90;98.20;;;;;;4972754;28;20855;-78
2021/10/28 04:47:41;;;;;;;1.60;1.20;;;10.00;98.20;;;;;;4973113;28;20898;-79
2021/10/28 04:50:09;;;;;;;1.60;1.33;;;10.00;98.20;;;;;;4968629;28;20898;-78
2021/10/28 04:52:37;;;;;;;1.60;1.40;;;10.00;98.20;;;;;;4970441;28;20488;-79
2021/10/28 04:55:05;;;;;;;2.00;1.80;;;9.90;98.20;;;;;;4974903;28;20829;-78
2021/10/28 04:57:32;;;;;;;1.60;1.23;;;9.90;98.20;;;;;;4974234;28;20465;-79
2021/10/28 05:00:02;;;;;;;1.57;1.13;;;9.90;98.20;;;;;;4974839;28;20504;-79
2021/10/28 05:02:29;;;;;;;1.60;1.30;;;9.90;98.20;;;;;;4974071;28;20995;-79
2021/10/28 05:04:56;;;;;;;1.60;1.20;;;9.90;98.20;;;;;;4973300;28;20490;-78
2021/10/28 05:07:23;;;;;;;1.60;1.30;;;9.90;98.20;;;;;;4972510;28;20474;-79
2021/10/28 05:09:50;;;;;;;1.60;1.20;;;9.90;98.20;;;;;;4973413;28;20472;-79
2021/10/28 05:12:17;;;;;;;1.60;1.23;;;9.90;98.20;;;;;;4970937;28;20497;-78
2021/10/28 05:14:44;;;;;;;1.60;1.20;;;9.90;98.20;;;;;;4970004;28;20492;-77
2021/10/28 05:17:12;;;;;;;1.60;1.20;;;9.90;98.20;;;;;;4972374;28;20474;-78
2021/10/28 05:19:39;;;;;;;1.60;1.20;;;9.90;98.20;;;;;;4972494;28;20494;-78
2021/10/28 05:22:07;;;;;;;1.60;1.20;;;9.90;98.20;;;;;;4971196;28;20466;-78
2021/10/28 05:24:34;;;;;;;1.60;1.20;;;9.90;98.20;;;;;;4971633;28;20493;-79
2021/10/28 05:27:02;;;;;;;1.63;1.43;;;9.80;98.20;;;;;;4967202;28;20545;-79
2021/10/28 05:29:29;;;;;;;1.60;1.30;;;9.80;98.20;;;;;;4967466;28;20465;-78
2021/10/28 05:31:56;;;;;;;3.80;2.90;;;9.80;98.20;;;;;;4971250;28;20490;-79
2021/10/28 05:34:24;;;;;;;1.60;1.20;;;9.80;98.20;;;;;;4977620;28;20572;-79
2021/10/28 05:36:51;;;;;;;1.60;1.20;;;9.80;98.20;;;;;;4970214;28;21077;-79
2021/10/28 05:39:18;;;;;;;1.60;1.13;;;9.80;98.20;;;;;;4968726;28;20477;-79
2021/10/28 05:41:46;;;;;;;1.60;1.10;;;9.80;98.20;;;;;;4966162;28;20505;-78
2021/10/28 05:44:14;;;;;;;1.60;1.20;;;9.80;98.20;;;;;;4972342;28;20524;-78
2021/10/28 05:46:41;;;;;;;1.60;1.30;;;9.80;98.20;;;;;;4981501;28;20549;-77
2021/10/28 05:49:08;;;;;;;1.60;1.20;;;9.70;98.20;;;;;;4974531;28;20476;-78
2021/10/28 05:51:37;;;;;;;1.60;1.20;;;9.70;98.20;;;;;;4970823;28;20488;-79
2021/10/28 05:54:05;;;;;;;1.60;1.30;;;9.70;98.20;;;;;;4969328;28;21142;-78
2021/10/28 05:56:32;;;;;;;1.57;1.10;;;9.80;98.20;;;;;;4971693;28;20473;-79
2021/10/28 05:58:59;;;;;;;1.60;1.20;;;9.70;98.20;;;;;;4973005;28;20462;-80
2021/10/28 06:01:26;;;;;;;1.60;1.20;;;9.70;98.20;;;;;;4971654;28;20466;-79
2021/10/28 06:03:53;;;;;;;1.97;1.50;;;9.70;98.20;;;;;;4972209;28;20473;-79
2021/10/28 06:06:21;;;;;;;1.60;1.30;;;9.70;98.20;;;;;;4972872;28;20474;-79
2021/10/28 06:08:49;;;;;;;1.60;1.30;;;9.60;98.20;;;;;;4970688;28;20497;-78
2021/10/28 06:11:16;;;;;;;1.60;1.30;;;9.60;98.20;;;;;;4972393;28;20602;-78
2021/10/28 06:13:46;;;;;;;1.60;1.20;;;9.60;98.20;;;;;;4968217;28;20470;-78
2021/10/28 06:16:15;;;;;;;1.60;1.20;;;9.60;98.20;;;;;;4968504;28;20564;-78
2021/10/28 06:18:43;;;;;;;1.60;1.30;;;9.60;98.20;;;;;;4966958;28;20560;-79
2021/10/28 06:21:11;;;;;;;1.60;1.30;;;9.60;98.20;;;;;;4968297;28;20466;-77
2021/10/28 06:23:39;;;;;;;1.60;1.40;;;9.60;98.20;;;;;;4970456;28;20536;-77
2021/10/28 06:26:09;;;;;;;1.60;1.20;;;9.60;98.20;;;;;;4970275;28;20485;-77
2021/10/28 06:28:36;;;;;;;1.60;1.40;;;9.60;98.20;;;;;;4970854;28;21031;-77
2021/10/28 06:31:03;;;;;;;1.60;1.20;;;9.60;98.20;;;;;;4971381;28;20469;-78
2021/10/28 06:33:34;;;;;;;1.80;1.70;;;9.60;98.20;;;;;;4971266;28;20791;-77
2021/10/28 06:36:03;;;;;;;2.37;2.17;;;9.60;98.20;;;;;;4970187;28;20503;-79
2021/10/28 06:38:32;;;;;;;2.90;2.70;;;9.60;98.20;;;;;;4971186;28;20474;-78
2021/10/28 06:40:59;;;;;;;1.60;1.27;;;9.70;98.20;;;;;;4964111;28;20502;-77
2021/10/28 06:43:28;;;;;;;1.60;1.20;;;9.70;98.20;;;;;;4969255;28;20509;-77
2021/10/28 06:45:55;;;;;;;1.80;1.60;;;9.70;98.20;;;;;;4969654;28;20616;-78
2021/10/28 06:48:22;;;;;;;1.70;1.50;;;9.70;98.20;;;;;;4968494;28;20466;-79
2021/10/28 06:50:52;;;;;;;4.57;3.53;;;9.70;98.20;;;;;;4970817;28;20470;-77
2021/10/28 06:53:24;;;;;;;1.60;1.20;;;9.80;98.20;;;;;;4971970;28;20513;-78
2021/10/28 06:56:03;;;;;;;1.60;1.20;;;9.80;98.20;;;;;;4977455;28;20909;-77
2021/10/28 07:04:01;;;;;;;1.60;1.20;;;9.80;98.20;;;;;;4970779;28;20460;-79
2021/10/28 07:06:29;;;;;;;4.13;3.83;;;9.90;98.20;;;;;;4968120;28;20544;-78
2021/10/28 07:08:59;;;;;;;1.60;1.20;;;9.90;98.20;;;;;;4973641;28;20479;-78
2021/10/28 07:11:29;;;;;;;1.60;1.30;;;10.00;98.20;;;;;;4977311;28;21149;-80
2021/10/28 07:14:00;;;;;;;1.60;1.20;;;10.00;98.20;;;;;;4970975;28;20486;-78
2021/10/28 07:16:35;;;;;;;1.60;1.20;;;10.00;98.20;;;;;;4968930;28;20474;-79
2021/10/28 07:19:13;;;;;;;1.60;1.30;;;10.00;98.20;;;;;;4964189;28;20477;-78
2021/10/28 07:21:57;;;;;;;1.60;1.20;;;10.00;98.20;;;;;;4973056;28;20556;-78
2021/10/28 07:30:18;;;;;;;1.60;1.20;;;10.10;98.20;;;;;;4972262;28;20542;-77
2021/10/28 07:58:23;;;;;;;1.60;1.20;;;10.60;98.20;;;;;;4891272;29;20500;-81
2021/10/28 08:14:55;;;;;;;1.60;1.10;;;10.80;98.20;;;;;;4972307;28;20577;-80
2021/10/28 08:17:40;;;;;;;1.60;1.10;;;10.90;98.20;;;;;;4970715;28;20469;-80
2021/10/28 08:20:15;;;;;;;1.60;1.20;;;11.00;98.20;;;;;;4972102;28;20462;-79
2021/10/28 08:22:44;;;;;;;1.83;1.63;;;11.10;98.20;;;;;;4972254;28;20469;-79
2021/10/28 08:30:41;;;;;;;1.60;1.10;;;11.40;98.20;;;;;;4966596;28;21212;-79
2021/10/28 08:33:08;;;;;;;1.60;1.20;;;11.60;98.20;;;;;;4971465;28;20589;-79
2021/10/28 08:35:38;;;;;;;1.60;1.13;;;11.70;98.20;;;;;;4970245;28;20481;-78
2021/10/28 08:38:05;;;;;;;1.67;1.20;;;11.90;98.20;;;;;;4964799;28;21071;-79
2021/10/28 08:40:33;;;;;;;1.60;1.10;;;11.90;98.20;;;;;;4971048;28;20502;-78
2021/10/28 08:43:02;;;;;;;1.60;1.10;;;12.00;98.20;;;;;;4968846;28;20549;-79
2021/10/28 08:45:34;;;;;;;1.60;1.10;;;12.10;98.20;;;;;;4969300;28;20481;-78
2021/10/28 08:48:03;;;;;;;1.60;1.10;;;12.20;98.20;;;;;;4967007;28;21038;-78
2021/10/28 08:50:36;;;;;;;1.60;1.20;;;12.20;98.20;;;;;;4968593;28;20453;-78
2021/10/28 08:53:20;;;;;;;1.60;1.10;;;12.30;98.20;;;;;;4973110;28;20544;-78
2021/10/28 08:55:50;;;;;;;1.60;1.10;;;12.30;98.20;;;;;;4973193;28;20506;-78
2021/10/28 09:23:59;;;;;;;1.60;1.10;;;12.70;98.20;;;;;;4967901;28;20521;-76
2021/10/28 09:26:43;;;;;;;1.60;1.10;;;12.80;98.20;;;;;;4958263;28;21089;-76
2021/10/28 09:29:17;;;;;;;1.80;1.30;;;12.80;98.20;;;;;;4963814;28;20463;-76
2021/10/28 09:31:57;;;;;;;1.57;1.10;;;12.90;98.20;;;;;;4964147;28;20559;-76
2021/10/28 09:34:50;;;;;;;1.60;1.10;;;13.00;98.20;;;;;;4965777;28;20501;-79
2021/10/28 09:51:39;;;;;;;1.53;1.00;;;13.50;98.20;;;;;;4968993;28;20513;-76
2021/10/28 09:54:13;;;;;;;1.60;1.10;;;13.50;98.20;;;;;;4966559;28;20532;-76
2021/10/28 09:59:28;;;;;;;1.80;1.30;;;13.60;98.20;;;;;;4969968;28;20497;-76
2021/10/28 10:02:09;;;;;;;1.60;1.10;;;13.80;98.20;;;;;;4968663;28;20565;-77
2021/10/28 10:04:37;;;;;;;1.60;1.10;;;13.80;98.20;;;;;;4970555;28;20585;-74
2021/10/28 10:07:07;;;;;;;1.50;1.03;;;14.00;98.20;;;;;;4967493;28;20501;-75
2021/10/28 10:09:35;;;;;;;1.60;1.10;;;14.00;98.20;;;;;;4969213;28;20466;-76
2021/10/28 10:12:03;;;;;;;1.57;1.07;;;14.10;98.20;;;;;;4967464;28;20502;-77
2021/10/28 10:14:34;;;;;;;1.60;1.00;;;14.10;98.20;;;;;;4967403;28;20502;-75
2021/10/28 10:17:02;;;;;;;1.60;1.13;;;14.10;98.20;;;;;;4964348;28;20497;-75
2021/10/28 10:19:34;;;;;;;1.57;1.00;;;14.20;98.20;;;;;;4965089;28;20470;-76
2021/10/28 10:22:14;;;;;;;1.57;1.00;;;14.20;98.20;;;;;;4969809;28;20957;-75
2021/10/28 11:33:09;;;;;;;1.60;1.00;;;15.50;98.20;;;;;;4968693;28;20548;-76
2021/10/28 12:15:19;;;;;;;1.60;1.10;;;16.50;95.40;;;;;;5084221;28;20493;-75
2021/10/28 12:45:31;;;;;;;1.50;0.93;;;17.40;91.80;;;;;;5083188;28;20559;-76
2021/10/28 12:48:30;;;;;;;1.53;1.00;;;17.60;90.70;;;;;;5083299;28;20460;-74
2021/10/28 12:51:10;;;;;;;1.50;0.90;;;17.60;89.50;;;;;;5074309;28;20491;-74
2021/10/28 13:38:13;;;;;;;1.50;0.90;;;17.50;90.60;;;;;;5070856;28;20982;-75
2021/10/28 13:49:15;;;;;;;1.53;1.00;;;17.40;91.40;;;;;;5037866;28;20458;-75
2021/10/28 13:52:04;;;;;;;1.50;1.00;;;17.30;90.90;;;;;;5061308;28;20465;-76
2021/10/28 14:00:18;;;;;;;1.57;1.00;;;17.20;92.30;;;;;;5062621;28;20461;-74
2021/10/28 14:25:38;;;;;;;1.50;1.00;;;17.00;93.00;;;;;;5068436;28;20474;-75
2021/10/28 15:29:06;;;;;;;1.50;1.00;;;15.50;98.20;;;;;;5063168;28;20565;-74
2021/10/28 15:34:37;;;;;;;1.57;1.00;;;15.40;98.20;;;;;;5066454;28;20469;-74
2021/10/28 15:37:09;;;;;;;1.60;1.10;;;15.30;98.20;;;;;;5064229;28;20489;-74
2021/10/28 15:39:40;;;;;;;1.50;0.93;;;15.30;98.20;;;;;;5064775;28;20761;-74
2021/10/28 15:42:32;;;;;;;1.57;1.00;;;15.20;98.20;;;;;;5070204;28;20762;-74
2021/10/28 15:51:19;;;;;;;1.53;1.00;;;15.10;98.20;;;;;;5055841;28;20522;-74
2021/10/28 15:56:37;;;;;;;1.60;1.10;;;14.90;98.20;;;;;;5060598;28;20529;-73
2021/10/28 16:23:45;;;;;;;1.50;1.00;;;14.20;98.20;;;;;;5065903;28;21053;-74
2021/10/28 16:26:12;;;;;;;1.57;1.00;;;14.10;98.20;;;;;;5071989;28;20494;-74
2021/10/28 16:28:39;;;;;;;1.53;1.00;;;14.00;98.20;;;;;;5058995;28;20467;-75
2021/10/28 16:31:06;;;;;;;1.60;1.00;;;14.00;98.20;;;;;;5060482;28;20481;-74
2021/10/28 16:33:33;;;;;;;1.60;1.00;;;13.90;98.20;;;;;;5075495;28;20487;-74
2021/10/28 16:36:00;;;;;;;1.50;1.00;;;13.80;98.20;;;;;;5060880;28;21084;-74
2021/10/28 16:38:27;;;;;;;1.60;1.00;;;13.80;98.20;;;;;;5061363;28;20516;-74
2021/10/28 16:40:58;;;;;;;1.57;1.00;;;13.70;98.20;;;;;;5057995;28;20564;-73
2021/10/28 16:43:27;;;;;;;1.97;1.77;;;13.60;98.20;;;;;;5076951;28;20449;-75
2021/10/28 16:45:54;;;;;;;1.57;1.10;;;13.50;98.20;;;;;;5082089;28;20480;-74
2021/10/28 16:48:21;;;;;;;1.60;1.10;;;13.40;98.20;;;;;;5067260;28;20515;-74
2021/10/28 16:50:54;;;;;;;1.57;1.10;;;13.40;98.20;;;;;;5074115;28;20497;-73
2021/10/28 16:53:21;;;;;;;1.50;1.00;;;13.30;98.20;;;;;;5071839;28;20500;-74
2021/10/28 16:55:48;;;;;;;1.60;1.10;;;13.30;98.20;;;;;;5066462;28;20682;-74
2021/10/28 16:58:16;;;;;;;1.90;1.70;;;13.20;98.20;;;;;;5056607;28;20492;-75
2021/10/28 17:00:43;;;;;;;1.60;1.27;;;13.10;98.20;;;;;;5064501;28;20485;-74
2021/10/28 17:03:10;;;;;;;1.50;1.10;;;13.10;98.20;;;;;;5072793;28;20474;-74
2021/10/28 17:05:37;;;;;;;2.07;1.87;;;13.00;98.20;;;;;;5071406;28;20528;-74
2021/10/28 17:08:04;;;;;;;1.53;1.00;;;13.00;98.20;;;;;;5067781;28;20956;-75
2021/10/28 17:10:32;;;;;;;1.70;1.47;;;12.90;98.20;;;;;;5081876;28;20518;-75
2021/10/28 17:13:02;;;;;;;1.57;1.10;;;12.90;98.20;;;;;;5074379;28;20460;-73
2021/10/28 17:15:30;;;;;;;1.53;1.10;;;12.90;98.20;;;;;;5083302;28;20489;-74
2021/10/28 17:18:01;;;;;;;1.73;1.40;;;12.80;98.20;;;;;;5077543;28;21047;-75
2021/10/28 17:20:34;;;;;;;1.80;1.33;;;12.80;98.20;;;;;;5072840;28;20523;-74
2021/10/28 17:23:01;;;;;;;1.60;1.10;;;12.70;98.20;;;;;;5074132;28;20515;-75
2021/10/28 17:25:31;;;;;;;1.57;1.20;;;12.60;98.20;;;;;;5068396;28;20491;-74
2021/10/28 17:27:58;;;;;;;1.60;1.00;;;12.60;98.20;;;;;;5079196;28;20840;-75
2021/10/28 17:30:25;;;;;;;1.50;1.03;;;12.60;98.20;;;;;;5077277;28;20483;-75
2021/10/28 17:32:53;;;;;;;1.53;1.10;;;12.50;98.20;;;;;;5063083;28;20562;-75
2021/10/28 17:35:20;;;;;;;1.60;1.30;;;12.50;98.20;;;;;;5051304;28;20486;-75
2021/10/28 17:37:49;;;;;;;2.57;2.30;;;12.40;98.20;;;;;;5074609;28;20513;-76
2021/10/28 17:40:16;;;;;;;1.63;1.40;;;12.40;98.20;;;;;;5079353;28;20476;-75
2021/10/28 17:42:48;;;;;;;2.37;2.17;;;12.30;98.20;;;;;;5075181;28;20465;-75
2021/10/28 17:45:20;;;;;;;1.50;1.10;;;12.30;98.20;;;;;;5076487;28;20473;-75
2021/10/28 17:47:47;;;;;;;1.57;1.00;;;12.30;98.20;;;;;;5075619;28;20457;-74
2021/10/28 17:50:15;;;;;;;1.57;1.10;;;12.20;98.20;;;;;;5074264;28;20814;-75
2021/10/28 17:52:43;;;;;;;1.50;1.10;;;12.20;98.20;;;;;;5075056;28;20465;-75
2021/10/28 17:55:11;;;;;;;1.60;1.10;;;12.10;98.20;;;;;;5089140;28;20480;-74
2021/10/28 17:57:38;;;;;;;1.70;1.60;;;12.10;98.20;;;;;;5068987;28;20497;-75
2021/10/28 18:00:07;;;;;;;1.60;1.20;;;12.00;98.20;;;;;;5087068;28;20457;-75
2021/10/28 18:02:35;;;;;;;1.50;1.00;;;12.00;98.20;;;;;;5075897;28;20484;-75
2021/10/28 18:05:03;;;;;;;1.60;1.30;;;11.90;98.20;;;;;;5079570;28;20489;-76
2021/10/28 18:07:31;;;;;;;1.53;1.10;;;11.90;98.20;;;;;;5068852;28;20465;-75
2021/10/28 18:09:59;;;;;;;1.60;1.20;;;11.80;98.20;;;;;;5065060;28;20859;-76
2021/10/28 18:12:26;;;;;;;1.70;1.50;;;11.80;98.20;;;;;;5074537;28;20468;-75
2021/10/28 18:14:53;;;;;;;4.37;3.23;;;11.70;98.20;;;;;;5072447;28;20543;-76
2021/10/28 18:17:20;;;;;;;1.57;1.10;;;11.70;98.20;;;;;;5077176;28;20489;-75
2021/10/28 18:19:47;;;;;;;1.57;1.10;;;11.60;98.20;;;;;;5080982;28;20471;-75
2021/10/28 18:22:14;;;;;;;1.60;1.20;;;11.60;98.20;;;;;;5059486;28;20477;-76
2021/10/28 18:24:43;;;;;;;1.60;1.10;;;11.50;98.20;;;;;;5065170;28;20926;-74
2021/10/28 18:27:10;;;;;;;1.53;1.10;;;11.50;98.20;;;;;;5078125;28;20456;-75
2021/10/28 18:29:38;;;;;;;1.57;1.10;;;11.40;98.20;;;;;;5073048;28;20466;-75
2021/10/28 18:32:07;;;;;;;1.60;1.20;;;11.40;98.20;;;;;;5066243;28;20457;-76
2021/10/28 18:34:34;;;;;;;1.60;1.23;;;11.40;98.20;;;;;;5070438;28;20489;-75
2021/10/28 18:37:00;;;;;;;2.53;2.33;;;11.40;98.20;;;;;;5072543;28;20485;-74
2021/10/28 18:39:28;;;;;;;1.70;1.50;;;11.30;98.20;;;;;;5075897;28;20997;-75
2021/10/28 18:41:58;;;;;;;2.10;1.83;;;11.30;98.20;;;;;;5071970;28;20552;-75
2021/10/28 18:44:26;;;;;;;1.60;1.20;;;11.20;98.20;;;;;;5076513;28;20581;-75
2021/10/28 18:46:53;;;;;;;1.70;1.43;;;11.20;98.20;;;;;;5083590;28;20608;-75
2021/10/28 18:49:22;;;;;;;1.57;1.10;;;11.20;98.20;;;;;;5071842;28;20833;-75
2021/10/28 18:51:50;;;;;;;1.60;1.20;;;11.10;98.20;;;;;;5076887;28;20465;-74
2021/10/28 18:54:17;;;;;;;1.57;1.10;;;11.10;98.20;;;;;;5062684;28;20486;-74
2021/10/28 18:56:46;;;;;;;1.60;1.23;;;11.00;98.20;;;;;;5059150;28;20507;-74
2021/10/28 18:59:14;;;;;;;1.50;1.10;;;11.00;98.20;;;;;;5067840;28;22001;-74
2021/10/28 19:01:41;;;;;;;1.60;1.20;;;10.90;98.20;;;;;;5069121;28;20460;-75
2021/10/28 19:04:08;;;;;;;1.60;1.20;;;10.90;98.20;;;;;;5069617;28;20563;-75
2021/10/28 19:06:35;;;;;;;3.40;2.23;;;10.80;98.20;;;;;;5063525;28;20836;-75
2021/10/28 19:09:02;;;;;;;1.60;1.10;;;10.80;98.20;;;;;;5069057;28;20714;-74
2021/10/28 19:11:31;;;;;;;1.60;1.20;;;10.80;98.20;;;;;;5060617;28;20462;-74
2021/10/28 19:13:58;;;;;;;1.53;1.10;;;10.70;98.20;;;;;;5070298;28;20475;-74
2021/10/28 19:16:26;;;;;;;1.53;1.20;;;10.70;98.20;;;;;;5066051;28;20465;-73
2021/10/28 19:18:54;;;;;;;1.60;1.30;;;10.70;98.20;;;;;;5071960;28;20525;-73
2021/10/28 19:21:21;;;;;;;1.60;1.33;;;10.60;98.20;;;;;;5063344;28;20489;-75
2021/10/28 19:23:47;;;;;;;1.80;1.60;;;10.60;98.20;;;;;;5068429;28;21088;-74
2021/10/28 19:26:14;;;;;;;1.60;1.20;;;10.60;98.20;;;;;;5072088;28;20543;-75
2021/10/28 19:28:44;;;;;;;1.73;1.47;;;10.60;98.20;;;;;;5072497;28;20518;-73
2021/10/28 19:31:14;;;;;;;1.60;1.10;;;10.60;98.20;;;;;;5057056;28;20880;-73
2021/10/28 19:33:45;;;;;;;2.33;1.77;;;10.60;98.20;;;;;;5071761;28;20526;-74
2021/10/28 19:36:15;;;;;;;1.87;1.67;;;10.50;98.20;;;;;;5072642;28;20498;-75
2021/10/28 19:38:53;;;;;;;2.07;1.87;;;10.50;98.20;;;;;;5064628;28;20494;-74
2021/10/28 19:41:37;;;;;;;1.60;1.33;;;10.40;98.20;;;;;;5063241;28;20497;-73
2021/10/28 19:46:48;;;;;;;1.60;1.10;;;10.30;98.20;;;;;;5047954;28;20446;-75
2021/10/28 19:49:16;;;;;;;1.57;1.20;;;10.30;98.20;;;;;;5056668;28;20459;-74
2021/10/28 19:51:44;;;;;;;1.60;1.20;;;10.30;98.20;;;;;;5051178;28;20465;-75
2021/10/28 19:54:13;;;;;;;1.50;1.10;;;10.30;98.20;;;;;;5056289;28;20685;-75
2021/10/28 19:56:42;;;;;;;2.03;1.47;;;10.20;98.20;;;;;;5075006;28;20478;-76
2021/10/28 19:59:12;;;;;;;1.57;1.20;;;10.20;98.20;;;;;;5077953;28;20508;-75
2021/10/28 20:01:43;;;;;;;2.33;2.13;;;10.20;98.20;;;;;;5072294;28;20572;-75
2021/10/28 20:07:05;;;;;;;1.60;1.30;;;10.20;98.20;;;;;;5055562;28;20462;-74
2021/10/28 20:20:31;;;;;;;1.60;1.20;;;10.00;98.20;;;;;;5066280;28;20479;-75
2021/10/28 20:23:00;;;;;;;1.60;1.30;;;10.00;98.20;;;;;;5066616;28;20545;-75
2021/10/28 20:25:29;;;;;;;1.60;1.20;;;10.00;98.20;;;;;;5069647;28;20567;-73
2021/10/28 20:28:01;;;;;;;2.10;1.90;;;9.90;98.20;;;;;;5066627;28;20462;-74
2021/10/28 20:30:29;;;;;;;1.63;1.37;;;9.90;98.20;;;;;;5072411;28;21004;-75
2021/10/28 20:32:56;;;;;;;1.60;1.20;;;9.90;98.20;;;;;;5077398;28;20457;-74
2021/10/28 20:35:53;;;;;;;1.70;1.30;;;9.90;98.20;;;;;;5077063;28;20523;-75
2021/10/28 20:38:22;;;;;;;2.10;1.83;;;9.90;98.20;;;;;;5078753;28;20489;-74
2021/10/28 20:40:49;;;;;;;1.60;1.20;;;9.90;98.20;;;;;;5071549;28;20472;-75
2021/10/28 20:43:16;;;;;;;1.60;1.20;;;9.90;98.20;;;;;;5071210;28;21121;-74
2021/10/28 20:45:43;;;;;;;1.60;1.10;;;9.90;98.20;;;;;;5070072;28;20488;-74
2021/10/28 20:48:10;;;;;;;1.60;1.30;;;9.90;98.20;;;;;;5070508;28;20510;-74
2021/10/28 20:50:37;;;;;;;1.60;1.20;;;9.90;98.20;;;;;;5066068;28;20468;-75
2021/10/28 20:53:05;;;;;;;1.53;1.20;;;9.80;98.20;;;;;;5058730;28;20476;-74
2021/10/28 20:55:34;;;;;;;1.60;1.20;;;9.80;98.20;;;;;;5074362;28;20492;-74
2021/10/28 20:58:00;;;;;;;1.60;1.20;;;9.80;98.20;;;;;;5067699;28;20567;-74
2021/10/28 21:00:27;;;;;;;1.57;1.20;;;9.70;98.20;;;;;;5072176;28;20468;-76
2021/10/28 21:02:59;;;;;;;1.60;1.30;;;9.70;98.20;;;;;;5067843;28;20527;-74
2021/10/28 21:05:26;;;;;;;1.60;1.27;;;9.70;98.20;;;;;;5071142;28;20481;-75
2021/10/28 21:07:54;;;;;;;1.60;1.40;;;9.70;98.20;;;;;;5061507;28;20473;-74
2021/10/28 21:10:24;;;;;;;1.60;1.30;;;9.60;98.20;;;;;;5070904;28;20468;-75